createdAt,value
2023-05-20T00:02:03.315Z,102064.81
2023-05-20T00:04:31.837Z,102063.97
2023-05-20T00:06:58.852Z,102069.19
2023-05-20T00:09:27.018Z,102063.97
2023-05-20T00:11:54.969Z,102065.69
2023-05-20T00:14:21.808Z,102059.53
2023-05-20T00:16:48.626Z,102061.25
2023-05-20T00:19:16.844Z,102063.88
2023-05-20T00:21:45.656Z,102062.13
2023-05-20T00:24:14.362Z,102060.34
2023-05-20T00:26:42.250Z,102069.13
2023-05-20T00:29:09.380Z,102065.59
2023-05-20T00:31:36.846Z,102063.81
2023-05-20T00:34:07.341Z,102069.03
2023-05-20T00:36:35.431Z,102060.31
2023-05-20T00:39:02.342Z,102069.03
2023-05-20T00:41:29.742Z,102062.91
2023-05-20T00:43:57.023Z,102066.41
2023-05-20T00:46:26.552Z,102056.81
2023-05-20T00:48:54.088Z,102063.75
2023-05-20T00:51:21.754Z,102069.00
2023-05-20T00:53:49.698Z,102069.84
2023-05-20T00:56:17.854Z,102063.72
2023-05-20T00:58:45.325Z,102061.09
2023-05-20T01:01:13.245Z,102061.94
2023-05-20T01:03:40.728Z,102075.91
2023-05-20T01:06:08.419Z,102060.16
2023-05-20T01:08:35.718Z,102056.63
2023-05-20T01:11:17.836Z,102061.84
2023-05-20T01:13:55.719Z,102067.06
2023-05-20T01:16:24.763Z,102063.53
2023-05-20T01:18:56.046Z,102062.69
2023-05-20T01:21:27.450Z,102063.53
2023-05-20T01:23:54.933Z,102065.28
2023-05-20T01:26:27.219Z,102063.50
2023-05-20T01:28:54.718Z,102064.38
2023-05-20T01:31:29.485Z,102070.47
2023-05-20T01:33:58.535Z,102062.59
2023-05-20T01:36:27.546Z,102060.84
2023-05-20T01:38:56.199Z,102066.97
2023-05-20T01:41:26.632Z,102058.19
2023-05-20T01:43:53.847Z,102062.56
2023-05-20T01:46:24.136Z,102059.94
2023-05-20T01:48:52.718Z,102057.28
2023-05-20T01:51:19.767Z,102052.00
2023-05-20T01:53:47.738Z,102056.38
2023-05-20T01:56:15.375Z,102060.78
2023-05-20T01:58:42.926Z,102059.00
2023-05-20T02:01:10.118Z,102050.25
2023-05-20T02:03:37.567Z,102052.88
2023-05-20T02:06:04.690Z,102050.22
2023-05-20T02:08:31.724Z,102048.47
2023-05-20T02:10:58.915Z,102051.09
2023-05-20T02:13:26.552Z,102046.72
2023-05-20T02:15:54.346Z,102044.06
2023-05-20T02:18:21.148Z,102045.78
2023-05-20T02:20:51.588Z,102048.41
2023-05-20T02:23:19.718Z,102054.50
2023-05-20T02:25:47.052Z,102040.53
2023-05-20T02:28:14.150Z,102051.88
2023-05-20T02:30:43.667Z,102044.88
2023-05-20T02:33:12.444Z,102043.97
2023-05-20T02:35:40.300Z,102050.97
2023-05-20T02:38:07.386Z,102042.22
2023-05-20T02:40:34.329Z,102045.72
2023-05-20T02:43:03.123Z,102040.47
2023-05-20T02:45:31.160Z,102042.19
2023-05-20T02:47:58.496Z,102041.28
2023-05-20T02:50:28.613Z,102033.41
2023-05-20T02:52:57.595Z,102032.53
2023-05-20T02:55:24.788Z,102033.41
2023-05-20T02:57:52.382Z,102024.69
2023-05-20T03:00:19.555Z,102026.41
2023-05-20T03:02:47.370Z,102024.66
2023-05-20T03:05:14.837Z,102016.81
2023-05-20T03:07:42.980Z,102027.22
2023-05-20T03:10:10.838Z,102024.56
2023-05-20T03:12:39.204Z,102015.84
2023-05-20T03:15:07.740Z,102016.72
2023-05-20T03:17:36.243Z,102023.69
2023-05-20T03:20:08.289Z,102024.59
2023-05-20T03:22:35.304Z,102026.34
2023-05-20T03:25:09.866Z,102022.03
2023-05-20T03:27:37.998Z,102022.88
2023-05-20T03:30:06.962Z,102026.34
2023-05-20T03:32:35.968Z,102029.88
2023-05-20T03:35:07.573Z,102025.50
2023-05-20T03:37:39.760Z,102021.13
2023-05-20T03:40:10.540Z,102022.91
2023-05-20T03:42:39.035Z,102012.44
2023-05-20T03:45:08.726Z,102013.31
2023-05-20T03:47:37.259Z,102014.22
2023-05-20T03:50:06.921Z,102006.34
2023-05-20T03:52:35.691Z,102007.22
2023-05-20T03:55:04.320Z,102006.38
2023-05-20T03:57:32.438Z,102006.34
2023-05-20T03:59:59.821Z,101995.88
2023-05-20T04:02:27.207Z,102001.97
2023-05-20T04:04:57.838Z,102005.44
2023-05-20T04:07:26.926Z,102001.09
2023-05-20T04:09:55.796Z,102007.22
2023-05-20T04:12:32.955Z,101997.63
2023-05-20T04:15:03.680Z,102005.47
2023-05-20T04:17:31.914Z,102005.47
2023-05-20T04:20:02.498Z,102000.25
2023-05-20T04:22:30.550Z,102010.75
2023-05-20T04:24:59.084Z,102019.53
2023-05-20T04:27:29.984Z,102012.59
2023-05-20T04:29:58.705Z,102014.34
2023-05-20T04:32:27.105Z,102014.34
2023-05-20T04:34:57.361Z,102012.59
2023-05-20T04:37:26.440Z,102021.34
2023-05-20T04:39:53.942Z,102020.47
2023-05-20T04:42:22.378Z,102012.66
2023-05-20T04:44:49.406Z,102028.34
2023-05-20T04:47:17.479Z,102017.91
2023-05-20T04:49:45.761Z,102019.69
2023-05-20T04:52:14.976Z,102019.69
2023-05-20T04:54:42.663Z,102018.00
2023-05-20T04:57:09.749Z,102007.53
2023-05-20T04:59:37.103Z,102007.56
2023-05-20T05:02:04.779Z,101999.72
2023-05-20T05:04:33.411Z,102000.63
2023-05-20T05:07:00.391Z,101999.78
2023-05-20T05:09:28.387Z,102002.44
2023-05-20T05:11:55.703Z,101995.47
2023-05-20T05:14:23.723Z,101993.75
2023-05-20T05:16:51.313Z,101995.56
2023-05-20T05:19:20.213Z,101992.06
2023-05-20T05:21:48.017Z,101993.84
2023-05-20T05:24:15.379Z,101988.63
2023-05-20T05:26:42.391Z,101978.19
2023-05-20T05:29:11.906Z,101986.94
2023-05-20T05:31:39.007Z,101985.19
2023-05-20T05:34:05.947Z,101988.72
2023-05-20T05:36:33.993Z,101985.22
2023-05-20T05:39:00.988Z,101979.16
2023-05-20T05:41:28.296Z,101974.78
2023-05-20T05:43:55.920Z,101978.28
2023-05-20T05:46:23.497Z,101974.84
2023-05-20T05:48:56.583Z,101974.84
2023-05-20T05:51:25.050Z,101971.38
2023-05-20T05:53:55.479Z,101974.84
2023-05-20T05:56:23.025Z,101964.38
2023-05-20T05:58:49.990Z,101962.66
2023-05-20T06:01:17.685Z,101974.00
2023-05-20T06:03:45.026Z,101960.00
2023-05-20T06:06:11.908Z,101972.25
2023-05-20T06:08:39.264Z,101964.38
2023-05-20T06:11:06.908Z,101960.88
2023-05-20T06:13:33.810Z,101965.22
2023-05-20T06:16:03.410Z,101958.22
2023-05-20T06:18:30.496Z,101955.59
2023-05-20T06:20:58.607Z,101964.31
2023-05-20T06:23:26.195Z,101954.69
2023-05-20T06:25:59.112Z,101953.81
2023-05-20T06:28:30.018Z,101959.03
2023-05-20T06:30:58.118Z,101942.38
2023-05-20T06:33:26.245Z,101948.47
2023-05-20T06:35:55.058Z,101941.47
2023-05-20T06:38:22.877Z,101940.56
2023-05-20T06:40:50.147Z,101941.41
2023-05-20T06:43:17.851Z,101930.88
2023-05-20T06:45:45.800Z,101932.66
2023-05-20T06:48:20.818Z,101929.13
2023-05-20T06:50:49.082Z,101934.38
2023-05-20T06:53:17.604Z,101941.38
2023-05-20T06:55:45.011Z,101928.22
2023-05-20T06:58:11.974Z,101939.56
2023-05-20T07:00:39.495Z,101925.56
2023-05-20T07:03:06.644Z,101928.16
2023-05-20T07:05:35.441Z,101927.28
2023-05-20T07:08:03.369Z,101930.72
2023-05-20T07:10:30.794Z,101928.94
2023-05-20T07:12:58.160Z,101929.81
2023-05-20T07:15:25.954Z,101928.03
2023-05-20T07:17:53.236Z,101914.78
2023-05-20T07:20:20.244Z,101927.88
2023-05-20T07:22:50.809Z,101925.19
2023-05-20T07:25:17.919Z,101928.59
2023-05-20T07:27:44.728Z,101918.88
2023-05-20T07:30:11.718Z,101916.19
2023-05-20T07:32:39.202Z,101917.81
2023-05-20T07:35:06.781Z,101911.53
2023-05-20T07:37:33.946Z,101914.00
2023-05-20T07:40:02.005Z,101914.75
2023-05-20T07:42:29.654Z,101908.47
2023-05-20T07:44:56.968Z,101913.69
2023-05-20T07:47:24.098Z,101910.00
2023-05-20T07:49:50.944Z,101903.81
2023-05-20T07:52:18.243Z,101905.47
2023-05-20T07:54:45.610Z,101910.66
2023-05-20T07:57:12.891Z,101900.91
2023-05-20T07:59:40.014Z,101906.06
2023-05-20T08:02:08.397Z,101904.19
2023-05-20T08:04:36.079Z,101898.75
2023-05-20T08:07:03.778Z,101895.16
2023-05-20T08:09:34.655Z,101903.84
2023-05-20T08:12:02.553Z,101902.91
2023-05-20T08:14:29.643Z,101899.28
2023-05-20T08:16:56.805Z,101905.41
2023-05-20T08:19:24.750Z,101896.53
2023-05-20T08:21:52.032Z,101894.94
2023-05-20T08:24:19.527Z,101902.97
2023-05-20T08:26:46.667Z,101896.75
2023-05-20T08:29:14.473Z,101893.09
2023-05-20T08:31:41.383Z,101894.78
2023-05-20T08:34:08.622Z,101896.66
2023-05-20T08:36:35.845Z,101897.47
2023-05-20T08:39:02.836Z,101896.44
2023-05-20T08:41:29.934Z,101894.47
2023-05-20T08:44:01.000Z,101893.34
2023-05-20T08:46:27.899Z,101904.59
2023-05-20T08:48:55.919Z,101903.72
2023-05-20T08:51:25.830Z,101888.75
2023-05-20T08:53:53.187Z,101895.72
2023-05-20T08:56:21.981Z,101891.97
2023-05-20T08:58:49.464Z,101896.25
2023-05-20T09:01:16.772Z,101897.06
2023-05-20T09:03:44.524Z,101900.78
2023-05-20T09:06:17.319Z,101899.03
2023-05-20T09:08:44.821Z,101898.84
2023-05-20T09:11:12.292Z,101906.69
2023-05-20T09:13:39.250Z,101897.84
2023-05-20T09:16:07.519Z,101895.00
2023-05-20T09:18:34.257Z,101887.94
2023-05-20T09:21:07.080Z,101890.41
2023-05-20T09:23:37.662Z,101900.78
2023-05-20T09:26:05.364Z,101896.38
2023-05-20T09:28:32.547Z,101893.84
2023-05-20T09:31:00.409Z,101892.06
2023-05-20T09:33:30.129Z,101887.34
2023-05-20T09:36:04.921Z,101883.81
2023-05-20T09:38:41.996Z,101883.00
2023-05-20T09:41:12.093Z,101889.16
2023-05-20T09:43:40.413Z,101892.50
2023-05-20T09:46:08.367Z,101897.59
2023-05-20T09:48:37.958Z,101907.41
2023-05-20T09:51:06.871Z,101895.88
2023-05-20T09:53:34.485Z,101892.38
2023-05-20T09:56:01.542Z,101890.78
2023-05-20T09:58:29.771Z,101892.38
2023-05-20T10:00:56.806Z,101882.75
2023-05-20T10:03:28.323Z,101887.00
2023-05-20T10:06:10.763Z,101893.16
2023-05-20T10:09:06.040Z,101879.88
2023-05-20T10:11:51.665Z,101883.09
2023-05-20T10:14:32.320Z,101902.38
2023-05-20T10:17:25.665Z,101891.28
2023-05-20T10:19:59.479Z,101880.63
2023-05-20T10:22:37.583Z,101881.44
2023-05-20T10:25:07.620Z,101878.75
2023-05-20T10:27:45.962Z,101876.38
2023-05-20T10:30:20.698Z,101881.78
2023-05-20T10:33:03.151Z,101881.03
2023-05-20T10:35:30.632Z,101881.88
2023-05-20T10:38:27.067Z,101882.75
2023-05-20T10:41:07.639Z,101881.78
2023-05-20T10:43:34.967Z,101869.66
2023-05-20T10:46:05.023Z,101867.84
2023-05-20T10:48:34.882Z,101883.69
2023-05-20T10:51:06.566Z,101867.75
2023-05-20T10:53:43.225Z,101865.94
2023-05-20T10:56:21.722Z,101867.56
2023-05-20T10:58:50.767Z,101853.34
2023-05-20T11:01:19.154Z,101856.72
2023-05-20T11:03:49.218Z,101849.56
2023-05-20T11:06:18.596Z,101851.09
2023-05-20T11:08:46.409Z,101850.94
2023-05-20T11:11:15.279Z,101855.13
2023-05-20T11:13:42.738Z,101856.66
2023-05-20T11:16:18.701Z,101848.59
2023-05-20T11:18:49.153Z,101842.56
2023-05-20T11:21:16.833Z,101848.03
2023-05-20T11:23:43.989Z,101847.22
2023-05-20T11:26:11.298Z,101844.53
2023-05-20T11:28:38.318Z,101842.81
2023-05-20T11:31:05.717Z,101841.81
2023-05-20T11:33:32.987Z,101846.16
2023-05-20T11:36:03.588Z,101839.91
2023-05-20T11:38:32.624Z,101841.59
2023-05-20T11:41:00.236Z,101843.09
2023-05-20T11:43:27.404Z,101841.25
2023-05-20T11:45:59.994Z,101833.91
2023-05-20T11:48:27.291Z,101828.31
2023-05-20T11:50:55.954Z,101821.03
2023-05-20T11:53:24.560Z,101812.19
2023-05-20T11:55:56.691Z,101802.34
2023-05-20T11:58:25.517Z,101797.72
2023-05-20T12:00:57.092Z,101790.88
2023-05-20T12:03:29.688Z,101792.06
2023-05-20T12:05:57.170Z,101787.50
2023-05-20T12:08:24.111Z,101785.31
2023-05-20T12:10:50.984Z,101779.66
2023-05-20T12:13:19.475Z,101784.25
2023-05-20T12:15:46.749Z,101772.03
2023-05-20T12:18:13.788Z,101775.28
2023-05-20T12:20:40.967Z,101765.91
2023-05-20T12:23:07.855Z,101761.50
2023-05-20T12:25:35.078Z,101754.94
2023-05-20T12:28:02.664Z,101758.94
2023-05-20T12:30:29.968Z,101761.72
2023-05-20T12:32:57.167Z,101759.19
2023-05-20T12:35:38.234Z,101758.75
2023-05-20T12:38:06.740Z,101763.81
2023-05-20T12:40:34.905Z,101757.72
2023-05-20T12:43:03.552Z,101751.19
2023-05-20T12:45:31.204Z,101755.13
2023-05-20T12:47:58.707Z,101752.88
2023-05-20T12:50:27.473Z,101756.88
2023-05-20T12:52:54.508Z,101743.91
2023-05-20T12:55:21.722Z,101747.72
2023-05-20T12:57:48.707Z,101752.28
2023-05-20T13:00:16.158Z,101747.47
2023-05-20T13:02:43.699Z,101743.09
2023-05-20T13:05:11.556Z,101745.91
2023-05-20T13:07:40.248Z,101744.66
2023-05-20T13:10:08.784Z,101744.31
2023-05-20T13:12:36.208Z,101729.22
2023-05-20T13:15:05.827Z,101723.91
2023-05-20T13:17:32.767Z,101721.19
2023-05-20T13:20:00.142Z,101715.75
2023-05-20T13:22:27.371Z,101719.22
2023-05-20T13:24:54.447Z,101721.19
2023-05-20T13:27:21.485Z,101715.16
2023-05-20T13:29:48.397Z,101717.59
2023-05-20T13:32:15.422Z,101715.06
2023-05-20T13:34:42.467Z,101719.81
2023-05-20T13:37:10.138Z,101712.88
2023-05-20T13:39:37.634Z,101707.69
2023-05-20T13:42:04.791Z,101717.47
2023-05-20T13:44:32.770Z,101706.06
2023-05-20T13:47:00.668Z,101709.09
2023-05-20T13:49:27.684Z,101704.13
2023-05-20T13:51:54.576Z,101694.66
2023-05-20T13:54:21.939Z,101699.47
2023-05-20T13:56:49.188Z,101691.84
2023-05-20T13:59:16.364Z,101697.47
2023-05-20T14:01:45.447Z,101682.00
2023-05-20T14:04:12.927Z,101686.00
2023-05-20T14:06:40.560Z,101682.66
2023-05-20T14:09:09.194Z,101672.25
2023-05-20T14:11:36.919Z,101668.00
2023-05-20T14:14:04.247Z,101675.06
2023-05-20T14:16:32.044Z,101675.72
2023-05-20T14:19:00.053Z,101664.22
2023-05-20T14:21:27.547Z,101667.06
2023-05-20T14:23:54.527Z,101658.28
2023-05-20T14:26:21.743Z,101663.69
2023-05-20T14:28:49.375Z,101649.28
2023-05-20T14:31:17.142Z,101655.78
2023-05-20T14:33:43.888Z,101656.97
2023-05-20T14:36:11.411Z,101655.78
2023-05-20T14:38:38.447Z,101649.50
2023-05-20T14:41:05.465Z,101651.00
2023-05-20T14:43:32.687Z,101647.13
2023-05-20T14:46:00.462Z,101648.66
2023-05-20T14:48:27.345Z,101643.31
2023-05-20T14:50:54.548Z,101638.91
2023-05-20T14:53:22.725Z,101638.66
2023-05-20T14:55:50.252Z,101635.34
2023-05-20T14:58:17.814Z,101635.63
2023-05-20T15:00:44.739Z,101629.69
2023-05-20T15:03:11.936Z,101631.44
2023-05-20T15:05:39.166Z,101639.81
2023-05-20T15:08:06.298Z,101644.13
2023-05-20T15:10:33.471Z,101634.72
2023-05-20T15:13:00.960Z,101627.34
2023-05-20T15:15:29.084Z,101640.03
2023-05-20T15:17:56.678Z,101649.66
2023-05-20T15:20:23.732Z,101639.47
2023-05-20T15:22:52.379Z,101626.50
2023-05-20T15:25:19.298Z,101630.03
2023-05-20T15:27:47.023Z,101635.31
2023-05-20T15:30:14.662Z,101632.88
2023-05-20T15:32:43.003Z,101641.69
2023-05-20T15:35:10.512Z,101639.75
2023-05-20T15:37:38.362Z,101642.44
2023-05-20T15:40:06.589Z,101637.09
2023-05-20T15:42:33.856Z,101634.09
2023-05-20T15:45:00.713Z,101636.31
2023-05-20T15:47:28.226Z,101628.13
2023-05-20T15:49:57.456Z,101631.41
2023-05-20T15:52:24.540Z,101629.06
2023-05-20T15:54:51.858Z,101631.38
2023-05-20T15:57:19.136Z,101625.00
2023-05-20T15:59:46.451Z,101624.69
2023-05-20T16:02:13.399Z,101621.31
2023-05-20T16:04:40.482Z,101626.13
2023-05-20T16:07:07.665Z,101611.41
2023-05-20T16:09:34.650Z,101615.84
2023-05-20T16:12:02.268Z,101622.16
2023-05-20T16:14:29.692Z,101624.75
2023-05-20T16:16:56.841Z,101625.34
2023-05-20T16:19:24.055Z,101611.56
2023-05-20T16:21:51.252Z,101615.22
2023-05-20T16:24:18.035Z,101622.03
2023-05-20T16:26:45.094Z,101613.91
2023-05-20T16:29:13.849Z,101621.03
2023-05-20T16:31:44.752Z,101628.72
2023-05-20T16:34:11.800Z,101614.38
2023-05-20T16:36:38.858Z,101610.38
2023-05-20T16:39:06.609Z,101609.25
2023-05-20T16:41:33.502Z,101606.00
2023-05-20T16:44:00.696Z,101608.00
2023-05-20T16:46:28.440Z,101621.84
2023-05-20T16:48:55.678Z,101615.69
2023-05-20T16:51:22.649Z,101619.94
2023-05-20T16:53:50.723Z,101634.44
2023-05-20T16:56:17.857Z,101625.13
2023-05-20T16:58:44.769Z,101634.28
2023-05-20T17:01:11.712Z,101633.75
2023-05-20T17:03:38.973Z,101640.41
2023-05-20T17:06:07.382Z,101637.91
2023-05-20T17:08:34.219Z,101650.66
2023-05-20T17:11:02.068Z,101649.41
2023-05-20T17:13:29.016Z,101656.94
2023-05-20T17:15:56.133Z,101655.50
2023-05-20T17:18:23.166Z,101649.47
2023-05-20T17:20:49.983Z,101651.38
2023-05-20T17:23:16.859Z,101662.22
2023-05-20T17:25:43.955Z,101663.38
2023-05-20T17:28:11.108Z,101662.91
2023-05-20T17:30:39.249Z,101669.28
2023-05-20T17:33:06.600Z,101660.63
2023-05-20T17:35:34.096Z,101662.63
2023-05-20T17:38:01.342Z,101661.06
2023-05-20T17:40:28.555Z,101663.00
2023-05-20T17:42:56.072Z,101651.66
2023-05-20T17:45:23.246Z,101662.31
2023-05-20T17:47:51.097Z,101667.06
2023-05-20T17:50:18.325Z,101664.59
2023-05-20T17:52:45.277Z,101654.22
2023-05-20T17:55:13.024Z,101653.34
2023-05-20T17:57:40.622Z,101649.88
2023-05-20T18:00:09.846Z,101646.47
2023-05-20T18:02:38.290Z,101653.69
2023-05-20T18:05:06.495Z,101653.75
2023-05-20T18:07:33.467Z,101654.63
2023-05-20T18:10:00.725Z,101659.06
2023-05-20T18:12:27.944Z,101660.84
2023-05-20T18:14:54.813Z,101663.72
2023-05-20T18:17:22.017Z,101663.81
2023-05-20T18:19:49.551Z,101658.66
2023-05-20T18:22:16.858Z,101656.91
2023-05-20T18:24:44.310Z,101653.50
2023-05-20T18:27:11.261Z,101658.88
2023-05-20T18:29:38.016Z,101656.25
2023-05-20T18:32:05.534Z,101653.72
2023-05-20T18:34:34.666Z,101652.97
2023-05-20T18:37:02.218Z,101649.56
2023-05-20T18:39:29.297Z,101662.03
2023-05-20T18:41:56.122Z,101661.25
2023-05-20T18:44:23.688Z,101662.25
2023-05-20T18:46:50.844Z,101662.31
2023-05-20T18:49:17.746Z,101657.09
2023-05-20T18:51:44.935Z,101660.72
2023-05-20T18:54:11.781Z,101668.72
2023-05-20T18:56:39.020Z,101662.59
2023-05-20T18:59:06.494Z,101666.22
2023-05-20T19:01:36.591Z,101666.31
2023-05-20T19:04:04.314Z,101674.25
2023-05-20T19:06:34.863Z,101679.59
2023-05-20T19:09:02.192Z,101683.19
2023-05-20T19:11:29.714Z,101678.81
2023-05-20T19:14:00.240Z,101682.41
2023-05-20T19:16:27.214Z,101673.66
2023-05-20T19:18:54.163Z,101679.88
2023-05-20T19:21:21.418Z,101673.72
2023-05-20T19:23:48.794Z,101673.81
2023-05-20T19:26:16.301Z,101676.47
2023-05-20T19:28:43.443Z,101668.59
2023-05-20T19:31:10.531Z,101670.38
2023-05-20T19:33:37.941Z,101671.31
2023-05-20T19:36:06.114Z,101667.00
2023-05-20T19:38:33.161Z,101671.47
2023-05-20T19:40:59.929Z,101666.28
2023-05-20T19:43:27.146Z,101662.00
2023-05-20T19:45:54.686Z,101669.16
2023-05-20T19:48:22.371Z,101671.09
2023-05-20T19:50:50.010Z,101671.16
2023-05-20T19:53:17.779Z,101666.06
2023-05-20T19:55:45.263Z,101677.53
2023-05-20T19:58:12.067Z,101680.28
2023-05-20T20:00:39.485Z,101682.13
2023-05-20T20:03:07.385Z,101678.72
2023-05-20T20:05:34.769Z,101682.28
2023-05-20T20:08:01.743Z,101678.06
2023-05-20T20:10:30.768Z,101679.00
2023-05-20T20:12:57.997Z,101681.72
2023-05-20T20:15:25.457Z,101686.22
2023-05-20T20:17:52.571Z,101682.78
2023-05-20T20:20:19.778Z,101689.88
2023-05-20T20:22:47.159Z,101684.66
2023-05-20T20:25:14.154Z,101687.44
2023-05-20T20:27:46.510Z,101691.00
2023-05-20T20:30:14.090Z,101691.91
2023-05-20T20:32:41.770Z,101685.81
2023-05-20T20:35:09.228Z,101687.66
2023-05-20T20:37:38.410Z,101686.81
2023-05-20T20:40:07.960Z,101679.84
2023-05-20T20:42:35.117Z,101673.81
2023-05-20T20:45:02.327Z,101674.72
2023-05-20T20:47:29.357Z,101673.91
2023-05-20T20:49:57.351Z,101673.09
2023-05-20T20:52:24.524Z,101674.88
2023-05-20T20:54:51.737Z,101663.53
2023-05-20T20:57:18.550Z,101662.72
2023-05-20T20:59:47.887Z,101662.75
2023-05-20T21:02:15.625Z,101657.53
2023-05-20T21:04:43.098Z,101657.63
2023-05-20T21:07:10.360Z,101660.28
2023-05-20T21:09:37.841Z,101663.00
2023-05-20T21:12:06.648Z,101663.06
2023-05-20T21:14:34.041Z,101652.59
2023-05-20T21:17:01.074Z,101657.00
2023-05-20T21:19:28.547Z,101654.44
2023-05-20T21:21:55.892Z,101651.84
2023-05-20T21:24:22.834Z,101659.84
2023-05-20T21:26:49.971Z,101658.09
2023-05-20T21:29:16.829Z,101652.88
2023-05-20T21:31:43.587Z,101645.91
2023-05-20T21:34:11.071Z,101651.22
2023-05-20T21:36:38.179Z,101653.00
2023-05-20T21:39:05.483Z,101643.44
2023-05-20T21:41:32.560Z,101641.75
2023-05-20T21:43:59.879Z,101640.88
2023-05-20T21:46:27.576Z,101639.16
2023-05-20T21:48:54.403Z,101639.22
2023-05-20T21:51:22.415Z,101628.78
2023-05-20T21:53:49.212Z,101637.59
2023-05-20T21:56:16.520Z,101623.59
2023-05-20T21:58:43.362Z,101635.03
2023-05-20T22:01:11.045Z,101630.72
2023-05-20T22:03:39.845Z,101623.75
2023-05-20T22:06:07.399Z,101626.44
2023-05-20T22:08:34.451Z,101620.34
2023-05-20T22:11:05.396Z,101620.34
2023-05-20T22:13:33.858Z,101623.97
2023-05-20T22:16:02.090Z,101623.97
2023-05-20T22:18:29.350Z,101611.78
2023-05-20T22:21:00.308Z,101609.13
2023-05-20T22:23:28.772Z,101610.91
2023-05-20T22:25:56.022Z,101603.88
2023-05-20T22:28:23.827Z,101603.88
2023-05-20T22:30:51.600Z,101599.53
2023-05-20T22:33:18.744Z,101608.31
2023-05-20T22:35:46.199Z,101598.72
2023-05-20T22:38:13.524Z,101601.34
2023-05-20T22:40:41.617Z,101594.31
2023-05-20T22:43:08.363Z,101594.31
2023-05-20T22:45:36.322Z,101590.81
2023-05-20T22:48:04.741Z,101580.31
2023-05-20T22:50:35.320Z,101588.19
2023-05-20T22:53:03.066Z,101578.56
2023-05-20T22:55:30.730Z,101575.09
2023-05-20T22:57:58.142Z,101575.94
2023-05-20T23:00:26.466Z,101566.34
2023-05-20T23:02:53.717Z,101559.38
2023-05-20T23:05:21.548Z,101566.38
2023-05-20T23:07:51.133Z,101560.25
2023-05-20T23:10:20.305Z,101562.03
2023-05-20T23:12:47.918Z,101569.03
2023-05-20T23:15:16.672Z,101552.41
2023-05-20T23:17:45.857Z,101555.91
2023-05-20T23:20:14.591Z,101555.91
2023-05-20T23:22:42.102Z,101550.66
2023-05-20T23:25:09.369Z,101551.56
2023-05-20T23:27:36.167Z,101559.44
2023-05-20T23:30:03.174Z,101548.94
2023-05-20T23:32:30.080Z,101550.69
2023-05-20T23:34:56.970Z,101537.59
2023-05-20T23:37:24.037Z,101539.34
2023-05-20T23:39:50.897Z,101531.50
2023-05-20T23:42:17.956Z,101523.63
2023-05-20T23:44:44.924Z,101527.16
2023-05-20T23:47:13.617Z,101535.03
2023-05-20T23:49:41.487Z,101521.94
2023-05-20T23:52:09.211Z,101515.84
2023-05-20T23:54:36.399Z,101521.16
2023-05-20T23:57:03.645Z,101515.94
2023-05-20T23:59:31.076Z,101515.94
